CYPRPAUN

Guest
Details From CYPR - Prince Rupert
To PAUN - Unalakleet
Flight Number -
Tags Generated
Created
Modified
Stats Distance 1,084 nm / 2,008 km
Max Altitude 0 ft / 0 m
Waypoints 7
Social Downloads 2
Likes 0
Share VATSIM

Download

Looking for another format? Having issues loading an existing format? Contact us
Advertisement - Login to hide

Notes

Generated

Route

CYPR BKA02 LAIRE ZUSIG SITWE YAGUN PAUN

ID Type Via Altitude Latitude Longitude Leg Dist Tot Dist Heading (true) Name
O CYPR APT - 0 ft / 0 m 54.29334˚ -130.45165˚ - 0 nm - -
BKA02 FIX - 0 ft / 0 m 56.83029˚ -135.58075˚ 231 nm 231 nm 313° / 309° -
LAIRE FIX - 0 ft / 0 m 58.80407˚ -140.52871˚ 197 nm 428 nm 309° / 305° -
ZUSIG FIX - 0 ft / 0 m 60.81799˚ -146.96683˚ 228 nm 657 nm 305° / 299° -
SITWE FIX - 0 ft / 0 m 62.25000˚ -153.00000˚ 192 nm 850 nm 299° / 294° -
YAGUN FIX - 0 ft / 0 m 63.80489˚ -160.15525˚ 215 nm 1066 nm 299° / 292° -
O PAUN APT - 0 ft / 0 m 63.88345˚ -160.79903˚ 17 nm 1084 nm 286° / 285° -

Altitude Profile

Advertisement - Login to hide

Weather


0- 5 10 15 20 25 30 35+ Temperature / ° C

Clouds and Precipitation
Forecast for 2017-12-16 12:00 UTC. Updated 2 hours ago

Ground ~20,000 ft ~40,000 ft Winds

CYPR

Details ICAO CYPR (YPR)
Name Prince Rupert
Region Canada
Timezone America/Vancouver (UTC-8.0)
Stats Elevation 116 ft / 35 m (AMSL)
Location 54.286114° -130.444717°
Runways 1
Magnetic Variation 18.257° E

METAR

CYPR 160905Z AUTO 13011KT 9SM -RA FEW035 BKN055 OVC067 05/03 A3011 RMK SLP197

Decode

TAF

TAF CYPR 160638Z 1607/1619 13008KT P6SM FEW015 BKN025 TEMPO 1607/1613 4SM -RA BR BKN015 OVC025 BECMG 1609/1611 14015G25KT FM161300 14018G28KT 4SM -RA BR OVC015 RMK FCST BASED ON AUTO OBS. NXT FCST BY 161300Z

Decode

Departure Runways

ID Width Length Bearing (true) Bearing (mag) Surface Threshold Offset Overrun Length
13 200 ft / 61 m 6,043 ft / 1,842 m 150.73° 132.47° Asphalt 0 ft / 0 m 0 ft / 0 m
31 200 ft / 61 m 6,043 ft / 1,842 m 330.74° 312.48° Asphalt 0 ft / 0 m 0 ft / 0 m

PAUN

Details ICAO PAUN (UNK)
Name Unalakleet
Region USA (Alaska)
Timezone America/Anchorage (UTC-9.0)
Stats Elevation 68 ft / 21 m (AMSL)
Location 63.886590° -160.796931°
Runways 2
Magnetic Variation 12.175° E

METAR

PAUN 160917Z AUTO 07018KT 9SM -SN SCT026 BKN035 OVC060 M01/M03 A2904 RMK AO2 P0000 FZRANO

Decode

TAF

TAF PAUN 160520Z 1606/1706 07023KT P6SM -SN OVC050 FM160800 08022G29KT 4SM -SN BKN025 FM161500 07015KT 6SM -SN OVC050

Decode

Destination Runways

ID Width Length Bearing (true) Bearing (mag) Surface Threshold Offset Overrun Length
15 151 ft / 46 m 5,990 ft / 1,826 m 164.15° 151.97° Asphalt 0 ft / 0 m 499 ft / 152 m
26 79 ft / 24 m 1,993 ft / 608 m 278.43° 266.25° Asphalt 0 ft / 0 m 0 ft / 0 m
33 151 ft / 46 m 5,990 ft / 1,826 m 344.16° 331.98° Asphalt 0 ft / 0 m 0 ft / 0 m
8 79 ft / 24 m 1,993 ft / 608 m 98.42° 86.24° Asphalt 0 ft / 0 m 0 ft / 0 m